Terminal Aerodrome Forecast
Issued by NWS

Home | Current Version | Previous Version | Text Only | Print | Product List | Glossary On
Versions: 1 2 3 4 5 6 7 8 9 10 11 12 13 14 15 16 17 18 19
000
FTUS41 KBTV 252327
TAFMSS
TAF
KMSS 252327Z 2600/2624 23011KT P6SM VCSH OVC050
     FM260600 22006KT P6SM VCSH BKN070
     FM261600 03007KT P6SM VCSH SCT020 OVC035
     FM261800 05011KT 6SM -SHRA BR OVC012=

USA.gov is the U.S. government's official web portal to all federal, state and local government web resources and services.